Thunder radar more information blitzortung!


Radar de pluja more information rain snow radar


Visita la nostra xarxa de llocs de meteo:

Template documentation
and downloads

And another site



No particular awareness of the weather is required.    There are no Weather-warnings

Pagina Historial Weather Underground text

Diari Resum May 27, 2016 Unitats:  Mètric    Imperial   Tant
« Previous Dia
SegĂźent Dia »
Diari Setmana Mensual Anual Personalitzada
  Maxima: Minima: Media:
Temperatura: 28.2 °C 13.1 °C 21.3 °C
Punt de rosada: 15.2 °C 9.2 °C 12.2 °C
Humitat: 83 % 42 % 58 %
Wind Speed: 18.5 km/h 0.0 km/h 5.7 km/h
RĂ fegues de vent: 18.5 km/h - -
Vent:- - South
Pression baro: 1015.8 hPa 1012.8 hPa -
Precipitacions: 0.0 mm    
Historical Graphs
 
 
Dades de taula per May 27, 2016
Temps Temperatura Punt de rosada Pression baro Vent Wind Speed RĂ fegues de vent Humitat Rainfall Rate (Hourly)
00:00 13.5 °C 9.6 °C 1013.8 hPa Calm     77 % 0.0 mm
00:04 16.5 °C 10.3 °C 1014.8 hPa NNE 1.9 km/h   67 % 0.0 mm
00:09 16.5 °C 10.3 °C 1014.8 hPa Calm     67 % 0.0 mm
00:10 13.5 °C 9.2 °C 1013.8 hPa SW 1.6 km/h 3.2 km/h 75 % 0.0 mm
00:20 13.5 °C 9.3 °C 1013.8 hPa WSW 1.6 km/h 1.6 km/h 76 % 0.0 mm
00:40 13.5 °C 9.7 °C 1013.8 hPa WSW 1.6 km/h 1.6 km/h 78 % 0.0 mm
00:50 13.5 °C 9.7 °C 1013.8 hPa Calm   1.6 km/h 78 % 0.0 mm
01:00 13.3 °C 9.2 °C 1013.8 hPa NNE 3.2 km/h 3.2 km/h 76 % 0.0 mm
01:10 13.1 °C 9.2 °C 1013.8 hPa WSW 1.6 km/h 1.6 km/h 77 % 0.0 mm
01:20 13.1 °C 9.2 °C 1013.8 hPa SW 3.2 km/h 4.8 km/h 77 % 0.0 mm
01:30 13.1 °C 9.2 °C 1013.8 hPa SW 1.6 km/h 3.2 km/h 77 % 0.0 mm
01:40 13.2 °C 9.3 °C 1013.8 hPa WSW 1.6 km/h 3.2 km/h 77 % 0.0 mm
02:00 13.7 °C 9.9 °C 1014.8 hPa Calm   1.6 km/h 78 % 0.0 mm
02:10 13.9 °C 10.1 °C 1014.8 hPa Calm   1.6 km/h 78 % 0.0 mm
02:20 14.0 °C 10.1 °C 1014.8 hPa Calm   1.6 km/h 77 % 0.0 mm
02:30 14.1 °C 10.1 °C 1014.8 hPa Calm   1.6 km/h 77 % 0.0 mm
02:40 14.4 °C 10.4 °C 1014.8 hPa Calm   3.2 km/h 77 % 0.0 mm
02:50 14.7 °C 10.5 °C 1014.8 hPa SW 1.6 km/h 3.2 km/h 76 % 0.0 mm
03:00 14.9 °C 10.7 °C 1014.8 hPa SW 1.6 km/h 3.2 km/h 76 % 0.0 mm
03:10 15.1 °C 10.9 °C 1015.8 hPa Calm   3.2 km/h 76 % 0.0 mm
03:20 15.3 °C 10.9 °C 1014.8 hPa WSW 1.6 km/h 1.6 km/h 75 % 0.0 mm
03:30 15.5 °C 11.1 °C 1014.8 hPa Calm   1.6 km/h 75 % 0.0 mm
03:40 15.7 °C 11.3 °C 1015.8 hPa Calm   3.2 km/h 75 % 0.0 mm
03:50 16.0 °C 11.4 °C 1014.8 hPa SW 1.6 km/h 3.2 km/h 74 % 0.0 mm
04:00 16.2 °C 11.6 °C 1014.8 hPa SW 1.6 km/h 3.2 km/h 74 % 0.0 mm
04:10 16.6 °C 11.7 °C 1015.8 hPa Calm   4.8 km/h 73 % 0.0 mm
04:20 17.3 °C 12.0 °C 1015.8 hPa Calm   1.6 km/h 71 % 0.0 mm
04:30 17.9 °C 12.3 °C 1015.8 hPa Calm   3.2 km/h 70 % 0.0 mm
04:40 18.0 °C 12.0 °C 1015.8 hPa Calm   3.2 km/h 68 % 0.0 mm
04:50 18.0 °C 12.0 °C 1015.8 hPa SE 3.2 km/h 3.2 km/h 68 % 0.0 mm
05:00 19.0 °C 12.5 °C 1015.8 hPa WSW 1.6 km/h 3.2 km/h 66 % 0.0 mm
05:10 19.2 °C 12.4 °C 1015.8 hPa SSW 3.2 km/h 4.8 km/h 65 % 0.0 mm
05:20 19.5 °C 12.3 °C 1015.8 hPa SE 1.6 km/h 4.8 km/h 63 % 0.0 mm
05:30 20.2 °C 12.4 °C 1015.8 hPa ESE 1.6 km/h 3.2 km/h 61 % 0.0 mm
05:40 20.2 °C 11.9 °C 1014.8 hPa SSW 1.6 km/h 6.4 km/h 59 % 0.0 mm
05:50 21.2 °C 12.6 °C 1015.8 hPa SW 1.6 km/h 8.0 km/h 58 % 0.0 mm
06:10 22.3 °C 12.6 °C 1014.8 hPa SSE 1.6 km/h 6.4 km/h 54 % 0.0 mm
06:20 22.8 °C 12.7 °C 1015.8 hPa South 3.2 km/h 6.4 km/h 53 % 0.0 mm
06:30 23.1 °C 12.7 °C 1015.8 hPa South 3.2 km/h 4.8 km/h 52 % 0.0 mm
06:40 23.1 °C 12.4 °C 1014.8 hPa East 1.6 km/h 9.7 km/h 51 % 0.0 mm
06:50 22.8 °C 11.8 °C 1014.8 hPa East 4.8 km/h 8.0 km/h 50 % 0.0 mm
07:00 23.1 °C 11.8 °C 1014.8 hPa East 4.8 km/h 6.4 km/h 49 % 0.0 mm
07:10 23.1 °C 11.8 °C 1014.8 hPa ENE 4.8 km/h 8.0 km/h 49 % 0.0 mm
07:20 23.8 °C 12.1 °C 1014.8 hPa East 4.8 km/h 4.8 km/h 48 % 0.0 mm
07:30 24.7 °C 12.9 °C 1014.8 hPa ESE 4.8 km/h 6.4 km/h 48 % 0.0 mm
07:40 24.5 °C 12.4 °C 1014.8 hPa ENE 4.8 km/h 8.0 km/h 47 % 0.0 mm
07:50 24.6 °C 12.2 °C 1014.8 hPa NE 4.8 km/h 9.7 km/h 46 % 0.0 mm
12:52 24.5 °C 12.1 °C 1014.8 hPa WSW 5.6 km/h 5.6 km/h 46 % 0.0 mm
12:57 25.2 °C 12.4 °C 1014.8 hPa NNE 7.6 km/h 7.6 km/h 45 % 0.0 mm
13:02 25.2 °C 12.4 °C 1014.8 hPa SSW 3.9 km/h 3.9 km/h 45 % 0.0 mm
13:07 25.5 °C 12.7 °C 1014.8 hPa SSE 5.6 km/h 5.6 km/h 45 % 0.0 mm
13:12 26.3 °C 13.4 °C 1014.8 hPa ESE 3.9 km/h 3.9 km/h 45 % 0.0 mm
13:17 26.2 °C 13.0 °C 1014.8 hPa ESE 9.3 km/h 9.3 km/h 44 % 0.0 mm
13:22 25.8 °C 12.9 °C 1013.8 hPa SW 9.3 km/h 9.3 km/h 45 % 0.0 mm
13:27 26.4 °C 13.5 °C 1013.8 hPa South 3.7 km/h 3.7 km/h 45 % 0.0 mm
13:32 26.6 °C 13.3 °C 1013.8 hPa ESE 7.4 km/h 7.4 km/h 44 % 0.0 mm
13:37 26.7 °C 13.4 °C 1013.8 hPa East 3.7 km/h 3.7 km/h 44 % 0.0 mm
13:42 27.0 °C 13.3 °C 1013.8 hPa NE 5.6 km/h 5.6 km/h 43 % 0.0 mm
13:47 27.0 °C 13.3 °C 1013.8 hPa SE 7.4 km/h 7.6 km/h 43 % 0.0 mm
13:52 26.9 °C 13.6 °C 1013.8 hPa SE 9.3 km/h 9.3 km/h 44 % 0.0 mm
13:57 27.1 °C 13.4 °C 1013.8 hPa West 3.7 km/h 3.7 km/h 43 % 0.0 mm
14:02 27.4 °C 13.7 °C 1013.8 hPa NE 9.3 km/h 9.3 km/h 43 % 0.0 mm
14:07 27.4 °C 13.3 °C 1013.8 hPa ESE 13.0 km/h 13.0 km/h 42 % 0.0 mm
14:12 27.2 °C 13.2 °C 1013.8 hPa NE 9.3 km/h 9.3 km/h 42 % 0.0 mm
14:17 27.3 °C 13.6 °C 1013.8 hPa East 13.7 km/h 13.7 km/h 43 % 0.0 mm
14:22 27.2 °C 13.6 °C 1013.8 hPa NNE 7.4 km/h 7.4 km/h 43 % 0.0 mm
14:27 27.0 °C 13.3 °C 1013.8 hPa ENE 16.7 km/h 16.7 km/h 43 % 0.0 mm
14:32 27.2 °C 13.6 °C 1013.8 hPa East 13.0 km/h 13.0 km/h 43 % 0.0 mm
14:37 27.3 °C 13.6 °C 1012.8 hPa ENE 9.3 km/h 9.3 km/h 43 % 0.0 mm
14:42 27.3 °C 13.6 °C 1012.8 hPa SE 18.5 km/h 18.5 km/h 43 % 0.0 mm
14:47 26.9 °C 13.6 °C 1012.8 hPa ESE 13.0 km/h 13.0 km/h 44 % 0.0 mm
14:52 26.7 °C 13.8 °C 1013.8 hPa ESE 13.0 km/h 13.0 km/h 45 % 0.0 mm
14:57 26.9 °C 13.9 °C 1013.8 hPa West 16.7 km/h 16.7 km/h 45 % 0.0 mm
15:02 27.8 °C 14.8 °C 1013.8 hPa WSW 13.0 km/h 13.0 km/h 45 % 0.0 mm
15:07 28.2 °C 15.2 °C 1013.8 hPa SW 12.6 km/h 12.6 km/h 45 % 0.0 mm
15:12 28.0 °C 14.9 °C 1013.8 hPa SSW 16.7 km/h 16.7 km/h 45 % 0.0 mm
15:17 27.6 °C 14.6 °C 1013.8 hPa SSW 13.0 km/h 13.0 km/h 45 % 0.0 mm
15:22 27.6 °C 14.6 °C 1013.8 hPa SW 14.0 km/h 14.0 km/h 45 % 0.0 mm
15:27 27.1 °C 14.2 °C 1013.8 hPa WSW 10.8 km/h 10.8 km/h 45 % 0.0 mm
15:32 27.8 °C 14.4 °C 1013.8 hPa SSW 13.0 km/h 13.0 km/h 44 % 0.0 mm
15:37 27.4 °C 14.1 °C 1013.8 hPa WSW 11.1 km/h 11.1 km/h 44 % 0.0 mm
15:42 27.4 °C 14.1 °C 1013.8 hPa SW 13.0 km/h 13.0 km/h 44 % 0.0 mm
15:47 27.4 °C 14.1 °C 1013.8 hPa NNE 9.0 km/h 9.0 km/h 44 % 0.0 mm
15:52 27.0 °C 13.7 °C 1013.8 hPa SSW 9.3 km/h 9.3 km/h 44 % 0.0 mm
15:57 27.6 °C 14.2 °C 1013.8 hPa WSW 7.4 km/h 7.4 km/h 44 % 0.0 mm
16:02 27.7 °C 14.3 °C 1013.8 hPa ESE 5.3 km/h 5.3 km/h 44 % 0.0 mm
16:07 27.4 °C 14.1 °C 1013.8 hPa WSW 9.3 km/h 9.3 km/h 44 % 0.0 mm
16:12 27.5 °C 14.2 °C 1013.8 hPa WSW 6.9 km/h 6.9 km/h 44 % 0.0 mm
16:17 27.3 °C 13.6 °C 1013.8 hPa SSW 9.3 km/h 9.3 km/h 43 % 0.0 mm
16:23 27.3 °C 13.6 °C 1013.8 hPa WSW 7.4 km/h 7.4 km/h 43 % 0.0 mm
16:28 26.7 °C 13.4 °C 1013.8 hPa ESE 10.8 km/h 10.8 km/h 44 % 0.0 mm
16:33 26.5 °C 13.6 °C 1013.8 hPa SSE 5.8 km/h 5.8 km/h 45 % 0.0 mm
16:38 26.6 °C 13.7 °C 1013.8 hPa SW 9.3 km/h 9.3 km/h 45 % 0.0 mm
16:43 26.2 °C 13.3 °C 1013.8 hPa NE 5.6 km/h 5.6 km/h 45 % 0.0 mm
16:48 26.4 °C 13.5 °C 1013.8 hPa SW 4.7 km/h 4.7 km/h 45 % 0.0 mm
16:58 27.3 °C 14.0 °C 1013.8 hPa SW 9.3 km/h 9.3 km/h 44 % 0.0 mm
17:03 27.2 °C 13.6 °C 1013.8 hPa WSW 7.4 km/h 7.4 km/h 43 % 0.0 mm
17:08 27.1 °C 13.4 °C 1013.8 hPa SSW 9.3 km/h 9.3 km/h 43 % 0.0 mm
17:13 27.1 °C 13.4 °C 1013.8 hPa WSW 7.4 km/h 7.4 km/h 43 % 0.0 mm
17:18 27.1 °C 13.4 °C 1013.8 hPa West 9.3 km/h 9.3 km/h 43 % 0.0 mm
17:23 27.1 °C 13.4 °C 1013.8 hPa SW 3.9 km/h 3.9 km/h 43 % 0.0 mm
17:28 27.1 °C 13.4 °C 1013.8 hPa NW 9.3 km/h 9.5 km/h 43 % 0.0 mm
17:33 27.2 °C 13.6 °C 1013.8 hPa WSW 7.4 km/h 7.4 km/h 43 % 0.0 mm
17:38 26.8 °C 13.5 °C 1013.8 hPa SW 5.6 km/h 5.6 km/h 44 % 0.0 mm
17:43 26.8 °C 13.2 °C 1013.8 hPa NE 7.4 km/h 7.4 km/h 43 % 0.0 mm
17:48 25.7 °C 12.6 °C 1013.8 hPa WNW 7.4 km/h 7.4 km/h 44 % 0.0 mm
17:53 25.7 °C 12.6 °C 1013.8 hPa ESE 7.6 km/h 7.6 km/h 44 % 0.0 mm
17:58 25.7 °C 12.6 °C 1013.8 hPa East 9.3 km/h 9.3 km/h 44 % 0.0 mm
18:03 25.2 °C 12.4 °C 1013.8 hPa ENE 5.3 km/h 5.3 km/h 45 % 0.0 mm
18:08 25.0 °C 12.2 °C 1013.8 hPa East 9.3 km/h 9.3 km/h 45 % 0.0 mm
18:13 24.6 °C 12.2 °C 1013.8 hPa NE 10.0 km/h 10.0 km/h 46 % 0.0 mm
18:18 24.5 °C 12.1 °C 1013.8 hPa East 11.1 km/h 11.1 km/h 46 % 0.0 mm
18:23 24.5 °C 12.1 °C 1013.8 hPa East 7.4 km/h 7.4 km/h 46 % 0.0 mm
18:28 24.4 °C 12.3 °C 1013.8 hPa ESE 12.6 km/h 12.6 km/h 47 % 0.0 mm
18:33 23.9 °C 11.9 °C 1012.8 hPa SE 12.6 km/h 12.6 km/h 47 % 0.0 mm
18:43 23.6 °C 11.9 °C 1012.8 hPa ENE 7.4 km/h 7.4 km/h 48 % 0.0 mm
18:48 23.6 °C 11.9 °C 1013.8 hPa East 11.1 km/h 11.1 km/h 48 % 0.0 mm
18:53 23.4 °C 11.8 °C 1013.8 hPa ESE 13.0 km/h 13.0 km/h 48 % 0.0 mm
18:58 23.3 °C 11.7 °C 1013.8 hPa East 13.0 km/h 13.0 km/h 48 % 0.0 mm
19:08 23.9 °C 12.2 °C 1013.8 hPa East 3.9 km/h 3.9 km/h 48 % 0.0 mm
19:10 16.4 °C 12.3 °C 1014.8 hPa SW 3.2 km/h 4.8 km/h 77 % 0.0 mm
19:13 23.6 °C 11.9 °C 1013.8 hPa ESE 5.0 km/h 5.0 km/h 48 % 0.0 mm
19:18 23.4 °C 11.8 °C 1013.8 hPa East 5.6 km/h 5.6 km/h 48 % 0.0 mm
19:20 16.4 °C 12.7 °C 1015.8 hPa WSW 4.8 km/h 6.4 km/h 79 % 0.0 mm
19:23 23.8 °C 12.1 °C 1013.8 hPa South 5.6 km/h 5.6 km/h 48 % 0.0 mm
19:28 23.8 °C 12.1 °C 1013.8 hPa ENE 3.7 km/h 3.7 km/h 48 % 0.0 mm
19:30 16.2 °C 12.6 °C 1015.8 hPa SW 3.2 km/h 8.0 km/h 79 % 0.0 mm
19:33 23.8 °C 12.1 °C 1013.8 hPa SW 3.7 km/h 3.7 km/h 48 % 0.0 mm
19:38 24.0 °C 12.0 °C 1013.8 hPa SSW 7.9 km/h 7.9 km/h 47 % 0.0 mm
19:40 16.1 °C 12.4 °C 1015.8 hPa SW 3.2 km/h 6.4 km/h 79 % 0.0 mm
19:43 24.2 °C 12.2 °C 1013.8 hPa West 5.6 km/h 5.6 km/h 47 % 0.0 mm
19:48 24.2 °C 12.2 °C 1013.8 hPa WSW 7.4 km/h 7.4 km/h 47 % 0.0 mm
19:50 16.0 °C 12.6 °C 1015.8 hPa SW 3.2 km/h 4.8 km/h 80 % 0.0 mm
19:53 23.9 °C 11.6 °C 1013.8 hPa SW 11.1 km/h 11.1 km/h 46 % 0.0 mm
19:58 23.8 °C 11.8 °C 1013.8 hPa SW 11.1 km/h 11.1 km/h 47 % 0.0 mm
20:03 23.6 °C 11.6 °C 1013.8 hPa WSW 6.1 km/h 6.1 km/h 47 % 0.0 mm
20:08 23.4 °C 11.1 °C 1013.8 hPa WSW 11.1 km/h 11.1 km/h 46 % 0.0 mm
20:10 15.7 °C 12.4 °C 1015.8 hPa SW 1.6 km/h 3.2 km/h 81 % 0.0 mm
20:13 23.3 °C 11.3 °C 1013.8 hPa SW 11.1 km/h 11.1 km/h 47 % 0.0 mm
20:18 23.1 °C 11.2 °C 1013.8 hPa SW 7.4 km/h 7.4 km/h 47 % 0.0 mm
20:20 15.6 °C 12.2 °C 1015.8 hPa SW 3.2 km/h 4.8 km/h 80 % 0.0 mm
20:23 23.0 °C 11.1 °C 1013.8 hPa SW 9.3 km/h 9.3 km/h 47 % 0.0 mm
20:28 22.9 °C 11.3 °C 1013.8 hPa SW 5.6 km/h 5.6 km/h 48 % 0.0 mm
20:30 15.6 °C 12.3 °C 1015.8 hPa SW 1.6 km/h 3.2 km/h 81 % 0.0 mm
20:33 22.7 °C 11.1 °C 1014.8 hPa SSW 3.7 km/h 3.7 km/h 48 % 0.0 mm
20:38 22.5 °C 10.9 °C 1014.8 hPa SW 3.7 km/h 4.2 km/h 48 % 0.0 mm
20:40 15.5 °C 12.3 °C 1015.8 hPa SW 1.6 km/h 4.8 km/h 81 % 0.0 mm
20:43 22.3 °C 11.1 °C 1014.8 hPa NW 3.7 km/h 3.7 km/h 49 % 0.0 mm
20:48 22.2 °C 11.0 °C 1014.8 hPa SW 3.7 km/h 3.7 km/h 49 % 0.0 mm
20:50 15.6 °C 12.3 °C 1015.8 hPa SW 1.6 km/h 3.2 km/h 81 % 0.0 mm
20:53 22.0 °C 10.8 °C 1014.8 hPa SW 5.6 km/h 5.6 km/h 49 % 0.0 mm
20:58 21.8 °C 10.9 °C 1014.8 hPa SSW 3.9 km/h 4.2 km/h 50 % 0.0 mm
21:00 15.5 °C 12.3 °C 1015.8 hPa WSW 1.6 km/h 4.8 km/h 81 % 0.0 mm
21:03 21.5 °C 10.6 °C 1014.8 hPa WSW 3.7 km/h 3.7 km/h 50 % 0.0 mm
21:08 21.3 °C 10.4 °C 1014.8 hPa SW 7.4 km/h 7.4 km/h 50 % 0.0 mm
21:13 21.1 °C 10.6 °C 1014.8 hPa SW 5.8 km/h 5.8 km/h 51 % 0.0 mm
21:18 20.8 °C 10.6 °C 1013.8 hPa SW 5.6 km/h 5.6 km/h 52 % 0.0 mm
21:20 15.4 °C 12.5 °C 1014.8 hPa WSW 1.6 km/h 3.2 km/h 83 % 0.0 mm
21:23 20.7 °C 10.5 °C 1013.8 hPa SSW 6.4 km/h 6.4 km/h 52 % 0.0 mm
21:30 15.3 °C 12.2 °C 1014.8 hPa NNW 1.6 km/h 1.6 km/h 82 % 0.0 mm
21:33 20.3 °C 10.1 °C 1013.8 hPa SW 9.0 km/h 9.0 km/h 52 % 0.0 mm
21:38 20.0 °C 10.1 °C 1013.8 hPa SW 11.1 km/h 11.1 km/h 53 % 0.0 mm
21:40 15.2 °C 11.9 °C 1014.8 hPa NW 1.6 km/h 4.8 km/h 81 % 0.0 mm
21:43 19.7 °C 10.1 °C 1013.8 hPa SW 3.9 km/h 3.9 km/h 54 % 0.0 mm
21:48 19.6 °C 10.3 °C 1013.8 hPa WSW 7.4 km/h 7.4 km/h 55 % 0.0 mm
21:50 15.2 °C 12.3 °C 1014.8 hPa Calm     83 % 0.0 mm
21:53 19.4 °C 10.9 °C 1013.8 hPa WSW 7.4 km/h 7.4 km/h 58 % 0.0 mm
21:58 19.2 °C 11.0 °C 1013.8 hPa WSW 7.4 km/h 7.4 km/h 59 % 0.0 mm
22:00 15.2 °C 12.3 °C 1014.8 hPa Calm     83 % 0.0 mm
22:04 19.0 °C 11.1 °C 1013.8 hPa WSW 5.6 km/h 5.6 km/h 60 % 0.0 mm
22:09 18.9 °C 11.4 °C 1013.8 hPa WSW 5.6 km/h 5.6 km/h 62 % 0.0 mm
22:10 15.2 °C 12.2 °C 1013.8 hPa Calm   3.2 km/h 82 % 0.0 mm
22:14 18.8 °C 11.6 °C 1013.8 hPa WSW 7.4 km/h 7.4 km/h 63 % 0.0 mm
22:19 18.6 °C 11.9 °C 1013.8 hPa WSW 9.3 km/h 9.3 km/h 65 % 0.0 mm
22:20 15.3 °C 12.2 °C 1013.8 hPa Calm   3.2 km/h 82 % 0.0 mm
22:24 18.4 °C 11.7 °C 1013.8 hPa SSW 5.6 km/h 5.6 km/h 65 % 0.0 mm
22:29 18.3 °C 11.6 °C 1013.8 hPa SW 7.4 km/h 7.4 km/h 65 % 0.0 mm
22:30 15.3 °C 12.2 °C 1013.8 hPa SSW 1.6 km/h 3.2 km/h 82 % 0.0 mm
22:34 18.2 °C 11.7 °C 1013.8 hPa SW 6.1 km/h 6.1 km/h 66 % 0.0 mm
22:39 18.1 °C 11.9 °C 1013.8 hPa West 5.8 km/h 5.8 km/h 67 % 0.0 mm
22:40 15.2 °C 12.2 °C 1014.8 hPa Calm   3.2 km/h 82 % 0.0 mm
22:44 18.0 °C 11.8 °C 1013.8 hPa SW 5.0 km/h 5.0 km/h 67 % 0.0 mm
22:49 17.8 °C 11.8 °C 1013.8 hPa SW 5.6 km/h 5.6 km/h 68 % 0.0 mm
22:50 15.1 °C 12.1 °C 1013.8 hPa Calm   3.2 km/h 82 % 0.0 mm
22:54 17.8 °C 11.8 °C 1013.8 hPa West 5.6 km/h 5.6 km/h 68 % 0.0 mm
23:00 14.8 °C 11.8 °C 1013.8 hPa Calm   1.6 km/h 82 % 0.0 mm
23:09 17.5 °C 11.7 °C 1014.8 hPa WSW 5.8 km/h 5.8 km/h 69 % 0.0 mm
23:10 14.6 °C 11.4 °C 1013.8 hPa SW 1.6 km/h 3.2 km/h 81 % 0.0 mm
23:14 17.4 °C 11.9 °C 1014.8 hPa West 9.3 km/h 9.3 km/h 70 % 0.0 mm
23:19 17.2 °C 12.1 °C 1014.8 hPa South 5.6 km/h 5.6 km/h 72 % 0.0 mm
23:20 14.6 °C 11.7 °C 1013.8 hPa Calm   1.6 km/h 83 % 0.0 mm
23:24 17.0 °C 12.1 °C 1014.8 hPa South 9.3 km/h 9.3 km/h 73 % 0.0 mm
23:29 17.0 °C 12.3 °C 1014.8 hPa SW 5.6 km/h 5.6 km/h 74 % 0.0 mm
23:30 14.7 °C 11.8 °C 1013.8 hPa Calm     83 % 0.0 mm
23:34 16.9 °C 12.4 °C 1015.8 hPa SW 5.6 km/h 5.6 km/h 75 % 0.0 mm
23:39 16.8 °C 12.3 °C 1015.8 hPa SSW 5.6 km/h 5.6 km/h 75 % 0.0 mm
23:40 14.6 °C 11.7 °C 1013.8 hPa Calm   1.6 km/h 83 % 0.0 mm
23:44 16.7 °C 12.4 °C 1015.8 hPa SW 5.6 km/h 5.6 km/h 76 % 0.0 mm
23:49 16.7 °C 12.4 °C 1015.8 hPa West 3.7 km/h 4.7 km/h 76 % 0.0 mm
23:50 14.6 °C 11.6 °C 1013.8 hPa SW 1.6 km/h 1.6 km/h 82 % 0.0 mm
23:54 16.6 °C 12.3 °C 1015.8 hPa SW 4.7 km/h 4.7 km/h 76 % 0.0 mm
23:59 16.5 °C 12.3 °C 1015.8 hPa SW 4.2 km/h 4.2 km/h 76 % 0.0 mm
Meteo Sesrovires
Elogis d' Weather Underground - 3.5 mb

Guio original per  Jim McMurry - jmcmurry@mwt.net Adaptat per a la plantilla per  Wim van der Kuil - Leuven-Template.eu

Trobareu la nostra informacio del temps tambe a:

Weather Underground

AWEKAS